sensor_id;sensor_type;location;lat;lon;timestamp;P1;durP1;ratioP1;P2;durP2;ratioP2
49722;SDS011;43484;43.608;1.458;2023-07-22T00:01:32;5.22;;;3.13;;
49722;SDS011;43484;43.608;1.458;2023-07-22T00:03:58;3.15;;;2.50;;
49722;SDS011;43484;43.608;1.458;2023-07-22T00:06:25;4.75;;;2.90;;
49722;SDS011;43484;43.608;1.458;2023-07-22T00:08:53;4.80;;;3.33;;
49722;SDS011;43484;43.608;1.458;2023-07-22T00:11:20;3.10;;;2.78;;
49722;SDS011;43484;43.608;1.458;2023-07-22T00:13:46;4.90;;;2.70;;
49722;SDS011;43484;43.608;1.458;2023-07-22T00:16:13;4.82;;;3.10;;
49722;SDS011;43484;43.608;1.458;2023-07-22T00:18:39;8.85;;;2.53;;
49722;SDS011;43484;43.608;1.458;2023-07-22T00:21:07;4.45;;;2.90;;
49722;SDS011;43484;43.608;1.458;2023-07-22T00:23:35;4.35;;;2.55;;
49722;SDS011;43484;43.608;1.458;2023-07-22T00:26:02;4.78;;;2.78;;
49722;SDS011;43484;43.608;1.458;2023-07-22T00:28:29;4.93;;;2.50;;
49722;SDS011;43484;43.608;1.458;2023-07-22T00:30:55;3.08;;;2.70;;
49722;SDS011;43484;43.608;1.458;2023-07-22T00:33:23;5.15;;;2.60;;
49722;SDS011;43484;43.608;1.458;2023-07-22T00:35:50;2.92;;;2.30;;
49722;SDS011;43484;43.608;1.458;2023-07-22T00:38:18;6.07;;;2.92;;
49722;SDS011;43484;43.608;1.458;2023-07-22T00:40:45;2.55;;;2.33;;
49722;SDS011;43484;43.608;1.458;2023-07-22T00:43:12;3.95;;;2.30;;
49722;SDS011;43484;43.608;1.458;2023-07-22T00:45:39;5.43;;;2.70;;
49722;SDS011;43484;43.608;1.458;2023-07-22T00:48:06;4.65;;;2.45;;
49722;SDS011;43484;43.608;1.458;2023-07-22T00:50:34;5.72;;;2.65;;
49722;SDS011;43484;43.608;1.458;2023-07-22T00:53:02;5.78;;;2.92;;
49722;SDS011;43484;43.608;1.458;2023-07-22T00:55:28;2.80;;;2.60;;
49722;SDS011;43484;43.608;1.458;2023-07-22T00:57:55;3.35;;;1.92;;
49722;SDS011;43484;43.608;1.458;2023-07-22T01:00:22;3.22;;;1.92;;
49722;SDS011;43484;43.608;1.458;2023-07-22T01:02:49;6.65;;;2.33;;
49722;SDS011;43484;43.608;1.458;2023-07-22T01:05:16;9.02;;;2.97;;
49722;SDS011;43484;43.608;1.458;2023-07-22T01:07:43;5.90;;;2.58;;
49722;SDS011;43484;43.608;1.458;2023-07-22T01:10:10;2.72;;;2.10;;
49722;SDS011;43484;43.608;1.458;2023-07-22T01:12:39;6.47;;;2.30;;
49722;SDS011;43484;43.608;1.458;2023-07-22T01:15:05;3.70;;;2.17;;
49722;SDS011;43484;43.608;1.458;2023-07-22T01:17:36;4.43;;;2.50;;
49722;SDS011;43484;43.608;1.458;2023-07-22T01:20:04;4.28;;;2.25;;
49722;SDS011;43484;43.608;1.458;2023-07-22T01:22:32;3.95;;;2.10;;
49722;SDS011;43484;43.608;1.458;2023-07-22T01:25:00;5.07;;;2.45;;
49722;SDS011;43484;43.608;1.458;2023-07-22T01:27:27;2.50;;;2.00;;
49722;SDS011;43484;43.608;1.458;2023-07-22T01:29:54;4.72;;;2.60;;
49722;SDS011;43484;43.608;1.458;2023-07-22T01:32:20;5.38;;;2.25;;
49722;SDS011;43484;43.608;1.458;2023-07-22T01:34:47;4.07;;;2.40;;
49722;SDS011;43484;43.608;1.458;2023-07-22T01:37:14;4.55;;;2.72;;
49722;SDS011;43484;43.608;1.458;2023-07-22T01:39:41;2.70;;;2.45;;
49722;SDS011;43484;43.608;1.458;2023-07-22T01:42:08;6.10;;;2.20;;
49722;SDS011;43484;43.608;1.458;2023-07-22T01:44:34;7.53;;;2.63;;
49722;SDS011;43484;43.608;1.458;2023-07-22T01:47:02;5.25;;;2.80;;
49722;SDS011;43484;43.608;1.458;2023-07-22T01:49:29;7.30;;;2.88;;
49722;SDS011;43484;43.608;1.458;2023-07-22T01:51:56;5.60;;;2.60;;
49722;SDS011;43484;43.608;1.458;2023-07-22T01:54:23;5.63;;;2.33;;
49722;SDS011;43484;43.608;1.458;2023-07-22T01:56:49;7.00;;;2.47;;
49722;SDS011;43484;43.608;1.458;2023-07-22T01:59:16;5.47;;;2.40;;
49722;SDS011;43484;43.608;1.458;2023-07-22T02:01:42;3.75;;;2.10;;
49722;SDS011;43484;43.608;1.458;2023-07-22T02:04:09;4.03;;;2.50;;
49722;SDS011;43484;43.608;1.458;2023-07-22T02:06:37;5.28;;;2.30;;
49722;SDS011;43484;43.608;1.458;2023-07-22T02:09:04;10.40;;;2.47;;
49722;SDS011;43484;43.608;1.458;2023-07-22T02:11:35;6.85;;;2.30;;
49722;SDS011;43484;43.608;1.458;2023-07-22T02:14:02;3.03;;;2.15;;
49722;SDS011;43484;43.608;1.458;2023-07-22T02:16:34;3.28;;;2.15;;
49722;SDS011;43484;43.608;1.458;2023-07-22T02:19:01;5.75;;;2.20;;
49722;SDS011;43484;43.608;1.458;2023-07-22T02:21:29;6.10;;;1.88;;
49722;SDS011;43484;43.608;1.458;2023-07-22T02:23:56;2.72;;;1.95;;
49722;SDS011;43484;43.608;1.458;2023-07-22T02:26:22;3.50;;;2.38;;
49722;SDS011;43484;43.608;1.458;2023-07-22T02:28:50;3.45;;;2.40;;
49722;SDS011;43484;43.608;1.458;2023-07-22T02:31:17;3.88;;;2.25;;
49722;SDS011;43484;43.608;1.458;2023-07-22T02:33:44;4.82;;;2.70;;
49722;SDS011;43484;43.608;1.458;2023-07-22T02:36:10;2.75;;;2.42;;
49722;SDS011;43484;43.608;1.458;2023-07-22T02:38:37;6.63;;;2.30;;
49722;SDS011;43484;43.608;1.458;2023-07-22T02:41:04;5.22;;;2.28;;
49722;SDS011;43484;43.608;1.458;2023-07-22T02:43:34;6.43;;;2.45;;
49722;SDS011;43484;43.608;1.458;2023-07-22T02:46:02;4.65;;;2.75;;
49722;SDS011;43484;43.608;1.458;2023-07-22T02:48:30;3.05;;;2.20;;
49722;SDS011;43484;43.608;1.458;2023-07-22T02:51:07;4.25;;;2.00;;
49722;SDS011;43484;43.608;1.458;2023-07-22T02:53:35;3.85;;;2.10;;
49722;SDS011;43484;43.608;1.458;2023-07-22T02:56:05;3.38;;;1.90;;
49722;SDS011;43484;43.608;1.458;2023-07-22T02:58:33;4.10;;;2.42;;
49722;SDS011;43484;43.608;1.458;2023-07-22T03:01:00;3.17;;;1.80;;
49722;SDS011;43484;43.608;1.458;2023-07-22T03:03:27;9.13;;;2.35;;
49722;SDS011;43484;43.608;1.458;2023-07-22T03:05:53;4.38;;;2.28;;
49722;SDS011;43484;43.608;1.458;2023-07-22T03:08:20;4.82;;;2.20;;
49722;SDS011;43484;43.608;1.458;2023-07-22T03:10:47;3.58;;;1.65;;
49722;SDS011;43484;43.608;1.458;2023-07-22T03:13:15;3.55;;;1.95;;
49722;SDS011;43484;43.608;1.458;2023-07-22T03:15:42;4.25;;;1.77;;
49722;SDS011;43484;43.608;1.458;2023-07-22T03:18:10;2.47;;;1.40;;
49722;SDS011;43484;43.608;1.458;2023-07-22T03:20:38;5.53;;;1.85;;
49722;SDS011;43484;43.608;1.458;2023-07-22T03:23:06;2.80;;;1.77;;
49722;SDS011;43484;43.608;1.458;2023-07-22T03:25:33;6.32;;;1.90;;
49722;SDS011;43484;43.608;1.458;2023-07-22T03:28:02;4.72;;;1.70;;
49722;SDS011;43484;43.608;1.458;2023-07-22T03:30:30;4.50;;;2.00;;
49722;SDS011;43484;43.608;1.458;2023-07-22T03:32:57;3.38;;;1.73;;
49722;SDS011;43484;43.608;1.458;2023-07-22T03:35:24;3.30;;;1.50;;
49722;SDS011;43484;43.608;1.458;2023-07-22T03:37:50;3.45;;;1.90;;
49722;SDS011;43484;43.608;1.458;2023-07-22T03:40:17;2.63;;;1.60;;
49722;SDS011;43484;43.608;1.458;2023-07-22T03:42:47;2.03;;;1.40;;
49722;SDS011;43484;43.608;1.458;2023-07-22T03:45:18;2.58;;;1.85;;
49722;SDS011;43484;43.608;1.458;2023-07-22T03:47:45;3.45;;;1.50;;
49722;SDS011;43484;43.608;1.458;2023-07-22T03:50:13;3.33;;;1.67;;
49722;SDS011;43484;43.608;1.458;2023-07-22T03:52:40;4.82;;;1.73;;
49722;SDS011;43484;43.608;1.458;2023-07-22T03:55:07;4.18;;;1.35;;
49722;SDS011;43484;43.608;1.458;2023-07-22T03:57:34;4.20;;;1.88;;
49722;SDS011;43484;43.608;1.458;2023-07-22T04:00:02;3.70;;;1.75;;
49722;SDS011;43484;43.608;1.458;2023-07-22T04:02:30;3.90;;;1.88;;
49722;SDS011;43484;43.608;1.458;2023-07-22T04:04:56;2.03;;;1.33;;
49722;SDS011;43484;43.608;1.458;2023-07-22T04:07:23;6.80;;;1.20;;
49722;SDS011;43484;43.608;1.458;2023-07-22T04:09:50;5.18;;;1.45;;
49722;SDS011;43484;43.608;1.458;2023-07-22T04:12:16;7.35;;;1.52;;
49722;SDS011;43484;43.608;1.458;2023-07-22T04:14:43;3.08;;;1.73;;
49722;SDS011;43484;43.608;1.458;2023-07-22T04:17:10;3.45;;;1.70;;
49722;SDS011;43484;43.608;1.458;2023-07-22T04:19:36;4.93;;;1.63;;
49722;SDS011;43484;43.608;1.458;2023-07-22T04:22:04;4.47;;;1.30;;
49722;SDS011;43484;43.608;1.458;2023-07-22T04:24:31;3.55;;;1.45;;
49722;SDS011;43484;43.608;1.458;2023-07-22T04:26:58;4.22;;;1.75;;
49722;SDS011;43484;43.608;1.458;2023-07-22T04:29:26;2.97;;;1.40;;
49722;SDS011;43484;43.608;1.458;2023-07-22T04:31:56;2.83;;;1.75;;
49722;SDS011;43484;43.608;1.458;2023-07-22T04:36:56;5.30;;;2.00;;
49722;SDS011;43484;43.608;1.458;2023-07-22T04:39:23;4.60;;;1.55;;
49722;SDS011;43484;43.608;1.458;2023-07-22T04:41:51;5.20;;;2.00;;
49722;SDS011;43484;43.608;1.458;2023-07-22T04:44:18;1.67;;;1.50;;
49722;SDS011;43484;43.608;1.458;2023-07-22T04:46:45;1.85;;;1.65;;
49722;SDS011;43484;43.608;1.458;2023-07-22T04:49:12;5.00;;;2.65;;
49722;SDS011;43484;43.608;1.458;2023-07-22T04:51:40;6.88;;;2.03;;
49722;SDS011;43484;43.608;1.458;2023-07-22T04:54:07;6.90;;;2.08;;
49722;SDS011;43484;43.608;1.458;2023-07-22T04:56:33;2.65;;;1.80;;
49722;SDS011;43484;43.608;1.458;2023-07-22T04:59:00;4.93;;;1.75;;
49722;SDS011;43484;43.608;1.458;2023-07-22T05:01:27;2.72;;;1.65;;
49722;SDS011;43484;43.608;1.458;2023-07-22T05:03:54;3.30;;;1.95;;
49722;SDS011;43484;43.608;1.458;2023-07-22T05:06:21;3.55;;;2.20;;
49722;SDS011;43484;43.608;1.458;2023-07-22T05:08:48;3.20;;;1.90;;
49722;SDS011;43484;43.608;1.458;2023-07-22T05:11:14;2.92;;;1.35;;
49722;SDS011;43484;43.608;1.458;2023-07-22T05:13:41;3.15;;;1.67;;
49722;SDS011;43484;43.608;1.458;2023-07-22T05:16:08;7.05;;;2.03;;
49722;SDS011;43484;43.608;1.458;2023-07-22T05:18:34;3.50;;;2.00;;
49722;SDS011;43484;43.608;1.458;2023-07-22T05:21:01;6.70;;;1.92;;
49722;SDS011;43484;43.608;1.458;2023-07-22T05:23:27;4.20;;;1.58;;
49722;SDS011;43484;43.608;1.458;2023-07-22T05:25:54;4.63;;;1.73;;
49722;SDS011;43484;43.608;1.458;2023-07-22T05:28:21;1.90;;;1.60;;
49722;SDS011;43484;43.608;1.458;2023-07-22T05:30:50;3.97;;;1.58;;
49722;SDS011;43484;43.608;1.458;2023-07-22T05:33:17;5.22;;;2.10;;
49722;SDS011;43484;43.608;1.458;2023-07-22T05:35:44;6.05;;;1.98;;
49722;SDS011;43484;43.608;1.458;2023-07-22T05:38:14;5.00;;;1.73;;
49722;SDS011;43484;43.608;1.458;2023-07-22T05:40:40;5.80;;;2.08;;
49722;SDS011;43484;43.608;1.458;2023-07-22T05:43:07;2.63;;;1.40;;
49722;SDS011;43484;43.608;1.458;2023-07-22T05:45:34;7.57;;;1.83;;
49722;SDS011;43484;43.608;1.458;2023-07-22T05:48:00;2.58;;;1.40;;
49722;SDS011;43484;43.608;1.458;2023-07-22T05:50:27;4.38;;;1.45;;
49722;SDS011;43484;43.608;1.458;2023-07-22T05:52:53;3.60;;;1.55;;
49722;SDS011;43484;43.608;1.458;2023-07-22T05:55:20;6.63;;;1.80;;
49722;SDS011;43484;43.608;1.458;2023-07-22T05:57:47;2.40;;;1.73;;
49722;SDS011;43484;43.608;1.458;2023-07-22T06:00:14;4.03;;;1.42;;
49722;SDS011;43484;43.608;1.458;2023-07-22T06:02:40;2.72;;;1.55;;
49722;SDS011;43484;43.608;1.458;2023-07-22T06:05:08;2.97;;;1.40;;
49722;SDS011;43484;43.608;1.458;2023-07-22T06:07:34;2.60;;;1.63;;
49722;SDS011;43484;43.608;1.458;2023-07-22T06:10:01;4.30;;;1.55;;
49722;SDS011;43484;43.608;1.458;2023-07-22T06:12:28;2.92;;;1.55;;
49722;SDS011;43484;43.608;1.458;2023-07-22T06:14:55;3.28;;;1.65;;
49722;SDS011;43484;43.608;1.458;2023-07-22T06:17:22;6.85;;;1.88;;
49722;SDS011;43484;43.608;1.458;2023-07-22T06:19:49;7.22;;;1.40;;
49722;SDS011;43484;43.608;1.458;2023-07-22T06:22:15;4.35;;;1.60;;
49722;SDS011;43484;43.608;1.458;2023-07-22T06:24:42;3.55;;;1.50;;
49722;SDS011;43484;43.608;1.458;2023-07-22T06:27:09;2.47;;;1.30;;
49722;SDS011;43484;43.608;1.458;2023-07-22T06:29:36;2.55;;;1.38;;
49722;SDS011;43484;43.608;1.458;2023-07-22T06:32:02;4.00;;;1.20;;
49722;SDS011;43484;43.608;1.458;2023-07-22T06:34:29;2.67;;;1.10;;
49722;SDS011;43484;43.608;1.458;2023-07-22T06:36:56;3.90;;;1.48;;
49722;SDS011;43484;43.608;1.458;2023-07-22T06:39:22;2.08;;;1.55;;
49722;SDS011;43484;43.608;1.458;2023-07-22T06:41:49;3.90;;;1.48;;
49722;SDS011;43484;43.608;1.458;2023-07-22T06:44:16;3.67;;;1.60;;
49722;SDS011;43484;43.608;1.458;2023-07-22T06:46:42;3.88;;;1.65;;
49722;SDS011;43484;43.608;1.458;2023-07-22T06:49:10;2.33;;;1.23;;
49722;SDS011;43484;43.608;1.458;2023-07-22T06:51:37;2.25;;;1.52;;
49722;SDS011;43484;43.608;1.458;2023-07-22T06:54:04;6.18;;;1.92;;
49722;SDS011;43484;43.608;1.458;2023-07-22T06:56:30;3.35;;;1.83;;
49722;SDS011;43484;43.608;1.458;2023-07-22T06:58:57;5.20;;;1.50;;
49722;SDS011;43484;43.608;1.458;2023-07-22T07:01:25;3.40;;;1.48;;
49722;SDS011;43484;43.608;1.458;2023-07-22T07:03:52;5.93;;;1.23;;
49722;SDS011;43484;43.608;1.458;2023-07-22T07:06:19;4.60;;;1.30;;
49722;SDS011;43484;43.608;1.458;2023-07-22T07:08:46;3.78;;;1.50;;
49722;SDS011;43484;43.608;1.458;2023-07-22T07:11:13;2.78;;;1.80;;
49722;SDS011;43484;43.608;1.458;2023-07-22T07:13:39;4.43;;;1.73;;
49722;SDS011;43484;43.608;1.458;2023-07-22T07:16:22;2.45;;;1.70;;
49722;SDS011;43484;43.608;1.458;2023-07-22T07:18:51;2.50;;;1.60;;
49722;SDS011;43484;43.608;1.458;2023-07-22T07:21:18;3.42;;;1.40;;
49722;SDS011;43484;43.608;1.458;2023-07-22T07:23:46;2.08;;;1.58;;
49722;SDS011;43484;43.608;1.458;2023-07-22T07:26:13;1.92;;;1.45;;
49722;SDS011;43484;43.608;1.458;2023-07-22T07:28:41;3.40;;;1.70;;
49722;SDS011;43484;43.608;1.458;2023-07-22T07:31:07;1.67;;;1.58;;
49722;SDS011;43484;43.608;1.458;2023-07-22T07:33:34;4.05;;;1.60;;
49722;SDS011;43484;43.608;1.458;2023-07-22T07:36:01;4.00;;;1.30;;
49722;SDS011;43484;43.608;1.458;2023-07-22T07:38:29;5.10;;;1.35;;
49722;SDS011;43484;43.608;1.458;2023-07-22T07:40:57;3.55;;;1.65;;
49722;SDS011;43484;43.608;1.458;2023-07-22T07:43:25;2.47;;;1.50;;
49722;SDS011;43484;43.608;1.458;2023-07-22T07:48:45;3.05;;;1.48;;
49722;SDS011;43484;43.608;1.458;2023-07-22T07:51:13;3.88;;;1.58;;
49722;SDS011;43484;43.608;1.458;2023-07-22T07:53:41;4.20;;;1.70;;
49722;SDS011;43484;43.608;1.458;2023-07-22T07:56:08;1.70;;;1.45;;
49722;SDS011;43484;43.608;1.458;2023-07-22T07:58:35;2.00;;;1.33;;
49722;SDS011;43484;43.608;1.458;2023-07-22T08:01:02;1.60;;;1.45;;
49722;SDS011;43484;43.608;1.458;2023-07-22T08:03:30;2.08;;;1.35;;
49722;SDS011;43484;43.608;1.458;2023-07-22T08:05:57;2.33;;;1.65;;
49722;SDS011;43484;43.608;1.458;2023-07-22T08:08:23;2.17;;;1.77;;
49722;SDS011;43484;43.608;1.458;2023-07-22T08:13:30;2.67;;;1.48;;
49722;SDS011;43484;43.608;1.458;2023-07-22T08:15:58;3.05;;;1.60;;
49722;SDS011;43484;43.608;1.458;2023-07-22T08:18:24;4.28;;;1.73;;
49722;SDS011;43484;43.608;1.458;2023-07-22T08:20:55;4.15;;;1.63;;
49722;SDS011;43484;43.608;1.458;2023-07-22T08:23:23;8.02;;;1.75;;
49722;SDS011;43484;43.608;1.458;2023-07-22T08:25:50;6.63;;;1.80;;
49722;SDS011;43484;43.608;1.458;2023-07-22T08:28:16;3.90;;;2.00;;
49722;SDS011;43484;43.608;1.458;2023-07-22T08:30:44;6.05;;;1.75;;
49722;SDS011;43484;43.608;1.458;2023-07-22T08:33:11;2.65;;;1.67;;
49722;SDS011;43484;43.608;1.458;2023-07-22T08:35:42;4.60;;;1.58;;
49722;SDS011;43484;43.608;1.458;2023-07-22T08:38:09;3.80;;;1.95;;
49722;SDS011;43484;43.608;1.458;2023-07-22T08:40:36;6.30;;;1.60;;
49722;SDS011;43484;43.608;1.458;2023-07-22T08:43:05;4.82;;;1.52;;
49722;SDS011;43484;43.608;1.458;2023-07-22T08:45:35;3.50;;;1.52;;
49722;SDS011;43484;43.608;1.458;2023-07-22T08:48:06;3.97;;;1.63;;
49722;SDS011;43484;43.608;1.458;2023-07-22T08:50:42;8.32;;;1.45;;
49722;SDS011;43484;43.608;1.458;2023-07-22T08:53:21;2.65;;;1.70;;
49722;SDS011;43484;43.608;1.458;2023-07-22T08:55:51;5.90;;;1.63;;
49722;SDS011;43484;43.608;1.458;2023-07-22T08:58:19;2.50;;;1.33;;
49722;SDS011;43484;43.608;1.458;2023-07-22T09:00:46;6.13;;;1.40;;
49722;SDS011;43484;43.608;1.458;2023-07-22T09:03:15;4.57;;;1.60;;
49722;SDS011;43484;43.608;1.458;2023-07-22T09:05:43;4.80;;;1.70;;
49722;SDS011;43484;43.608;1.458;2023-07-22T09:08:11;2.58;;;1.38;;
49722;SDS011;43484;43.608;1.458;2023-07-22T09:10:38;7.75;;;1.73;;
49722;SDS011;43484;43.608;1.458;2023-07-22T09:13:05;3.65;;;1.45;;
49722;SDS011;43484;43.608;1.458;2023-07-22T09:15:36;3.15;;;1.65;;
49722;SDS011;43484;43.608;1.458;2023-07-22T09:18:03;4.15;;;2.00;;
49722;SDS011;43484;43.608;1.458;2023-07-22T09:20:30;8.40;;;1.40;;
49722;SDS011;43484;43.608;1.458;2023-07-22T09:22:57;1.80;;;1.23;;
49722;SDS011;43484;43.608;1.458;2023-07-22T09:25:39;5.45;;;1.83;;
49722;SDS011;43484;43.608;1.458;2023-07-22T09:28:07;3.13;;;1.65;;
49722;SDS011;43484;43.608;1.458;2023-07-22T09:30:34;2.17;;;1.50;;
49722;SDS011;43484;43.608;1.458;2023-07-22T09:33:02;5.90;;;1.88;;
49722;SDS011;43484;43.608;1.458;2023-07-22T09:35:31;3.95;;;1.55;;
49722;SDS011;43484;43.608;1.458;2023-07-22T09:38:10;2.35;;;1.55;;
49722;SDS011;43484;43.608;1.458;2023-07-22T09:40:39;5.63;;;1.38;;
49722;SDS011;43484;43.608;1.458;2023-07-22T09:43:09;2.75;;;1.30;;
49722;SDS011;43484;43.608;1.458;2023-07-22T09:45:36;2.35;;;1.60;;
49722;SDS011;43484;43.608;1.458;2023-07-22T09:48:06;3.78;;;1.60;;
49722;SDS011;43484;43.608;1.458;2023-07-22T09:50:35;5.55;;;1.17;;
49722;SDS011;43484;43.608;1.458;2023-07-22T09:53:03;6.07;;;1.83;;
49722;SDS011;43484;43.608;1.458;2023-07-22T09:55:31;2.85;;;1.23;;
49722;SDS011;43484;43.608;1.458;2023-07-22T09:58:02;2.95;;;1.27;;
49722;SDS011;43484;43.608;1.458;2023-07-22T10:00:30;5.97;;;1.13;;
49722;SDS011;43484;43.608;1.458;2023-07-22T10:03:00;6.75;;;1.58;;
49722;SDS011;43484;43.608;1.458;2023-07-22T10:05:28;2.85;;;1.33;;
49722;SDS011;43484;43.608;1.458;2023-07-22T10:07:58;3.65;;;1.17;;
49722;SDS011;43484;43.608;1.458;2023-07-22T10:10:26;5.97;;;1.48;;
49722;SDS011;43484;43.608;1.458;2023-07-22T10:12:56;4.70;;;1.10;;
49722;SDS011;43484;43.608;1.458;2023-07-22T10:15:28;4.38;;;1.30;;
49722;SDS011;43484;43.608;1.458;2023-07-22T10:17:56;2.17;;;1.10;;
49722;SDS011;43484;43.608;1.458;2023-07-22T10:20:23;2.97;;;1.50;;
49722;SDS011;43484;43.608;1.458;2023-07-22T10:22:51;2.13;;;1.20;;
49722;SDS011;43484;43.608;1.458;2023-07-22T10:25:18;58.60;;;3.00;;
49722;SDS011;43484;43.608;1.458;2023-07-22T10:27:48;5.13;;;1.15;;
49722;SDS011;43484;43.608;1.458;2023-07-22T10:30:17;3.13;;;1.40;;
49722;SDS011;43484;43.608;1.458;2023-07-22T10:32:53;3.55;;;1.50;;
49722;SDS011;43484;43.608;1.458;2023-07-22T10:37:56;2.83;;;1.08;;
49722;SDS011;43484;43.608;1.458;2023-07-22T10:40:32;4.28;;;1.10;;
49722;SDS011;43484;43.608;1.458;2023-07-22T10:43:17;2.10;;;1.50;;
49722;SDS011;43484;43.608;1.458;2023-07-22T10:45:51;5.22;;;1.65;;
49722;SDS011;43484;43.608;1.458;2023-07-22T10:48:20;2.35;;;1.30;;
49722;SDS011;43484;43.608;1.458;2023-07-22T10:50:52;2.70;;;1.25;;
49722;SDS011;43484;43.608;1.458;2023-07-22T10:56:02;6.18;;;1.50;;
49722;SDS011;43484;43.608;1.458;2023-07-22T10:58:34;2.45;;;1.40;;
49722;SDS011;43484;43.608;1.458;2023-07-22T11:12:16;7.90;;;1.60;;
49722;SDS011;43484;43.608;1.458;2023-07-22T11:14:45;10.88;;;2.35;;
49722;SDS011;43484;43.608;1.458;2023-07-22T11:17:17;3.55;;;1.77;;
49722;SDS011;43484;43.608;1.458;2023-07-22T11:19:45;2.75;;;1.40;;
49722;SDS011;43484;43.608;1.458;2023-07-22T11:22:11;3.97;;;1.50;;
49722;SDS011;43484;43.608;1.458;2023-07-22T11:24:39;5.40;;;1.70;;
49722;SDS011;43484;43.608;1.458;2023-07-22T11:27:07;5.32;;;1.52;;
49722;SDS011;43484;43.608;1.458;2023-07-22T11:29:35;6.55;;;1.83;;
49722;SDS011;43484;43.608;1.458;2023-07-22T11:32:02;6.15;;;1.85;;
49722;SDS011;43484;43.608;1.458;2023-07-22T11:34:32;5.53;;;1.60;;
49722;SDS011;43484;43.608;1.458;2023-07-22T11:36:59;2.95;;;1.85;;
49722;SDS011;43484;43.608;1.458;2023-07-22T11:39:26;2.67;;;1.70;;
49722;SDS011;43484;43.608;1.458;2023-07-22T11:41:53;3.47;;;1.80;;
49722;SDS011;43484;43.608;1.458;2023-07-22T11:44:21;4.85;;;1.90;;
49722;SDS011;43484;43.608;1.458;2023-07-22T11:46:51;2.35;;;1.15;;
49722;SDS011;43484;43.608;1.458;2023-07-22T11:51:54;5.53;;;1.60;;
49722;SDS011;43484;43.608;1.458;2023-07-22T11:54:22;5.88;;;1.88;;
49722;SDS011;43484;43.608;1.458;2023-07-22T11:56:49;2.80;;;1.80;;
49722;SDS011;43484;43.608;1.458;2023-07-22T11:59:16;5.30;;;2.05;;
49722;SDS011;43484;43.608;1.458;2023-07-22T12:01:45;6.20;;;2.15;;
49722;SDS011;43484;43.608;1.458;2023-07-22T12:04:13;4.55;;;1.90;;
49722;SDS011;43484;43.608;1.458;2023-07-22T12:06:40;8.30;;;1.60;;
49722;SDS011;43484;43.608;1.458;2023-07-22T12:09:08;4.88;;;1.73;;
49722;SDS011;43484;43.608;1.458;2023-07-22T12:11:36;2.60;;;1.63;;
49722;SDS011;43484;43.608;1.458;2023-07-22T12:14:07;2.08;;;1.73;;
49722;SDS011;43484;43.608;1.458;2023-07-22T12:16:40;4.43;;;1.95;;
49722;SDS011;43484;43.608;1.458;2023-07-22T12:19:08;7.60;;;2.15;;
49722;SDS011;43484;43.608;1.458;2023-07-22T12:21:35;5.95;;;1.58;;
49722;SDS011;43484;43.608;1.458;2023-07-22T12:24:02;2.65;;;1.80;;
49722;SDS011;43484;43.608;1.458;2023-07-22T12:26:30;7.35;;;1.60;;
49722;SDS011;43484;43.608;1.458;2023-07-22T12:28:57;3.65;;;1.75;;
49722;SDS011;43484;43.608;1.458;2023-07-22T12:31:24;4.30;;;1.90;;
49722;SDS011;43484;43.608;1.458;2023-07-22T12:33:51;4.25;;;1.75;;
49722;SDS011;43484;43.608;1.458;2023-07-22T12:36:18;1.92;;;1.65;;
49722;SDS011;43484;43.608;1.458;2023-07-22T12:38:45;3.45;;;1.70;;
49722;SDS011;43484;43.608;1.458;2023-07-22T12:41:12;5.15;;;1.90;;
49722;SDS011;43484;43.608;1.458;2023-07-22T12:43:38;3.67;;;1.70;;
49722;SDS011;43484;43.608;1.458;2023-07-22T12:46:05;2.67;;;1.77;;
49722;SDS011;43484;43.608;1.458;2023-07-22T12:48:32;5.70;;;2.70;;
49722;SDS011;43484;43.608;1.458;2023-07-22T12:50:59;2.40;;;1.90;;
49722;SDS011;43484;43.608;1.458;2023-07-22T12:53:27;3.33;;;1.70;;
49722;SDS011;43484;43.608;1.458;2023-07-22T12:55:57;3.60;;;1.80;;
49722;SDS011;43484;43.608;1.458;2023-07-22T12:58:24;6.47;;;2.15;;
49722;SDS011;43484;43.608;1.458;2023-07-22T13:00:51;6.35;;;1.70;;
49722;SDS011;43484;43.608;1.458;2023-07-22T13:03:17;2.45;;;1.90;;
49722;SDS011;43484;43.608;1.458;2023-07-22T13:05:44;3.28;;;1.83;;
49722;SDS011;43484;43.608;1.458;2023-07-22T13:08:14;3.67;;;1.92;;
49722;SDS011;43484;43.608;1.458;2023-07-22T13:10:41;2.63;;;1.92;;
49722;SDS011;43484;43.608;1.458;2023-07-22T13:13:11;4.85;;;2.08;;
49722;SDS011;43484;43.608;1.458;2023-07-22T13:15:37;4.72;;;1.67;;
49722;SDS011;43484;43.608;1.458;2023-07-22T13:18:04;2.47;;;1.73;;
49722;SDS011;43484;43.608;1.458;2023-07-22T13:20:30;5.80;;;2.13;;
49722;SDS011;43484;43.608;1.458;2023-07-22T13:22:57;2.83;;;1.88;;
49722;SDS011;43484;43.608;1.458;2023-07-22T13:25:24;5.30;;;1.85;;
49722;SDS011;43484;43.608;1.458;2023-07-22T13:27:50;2.13;;;1.73;;
49722;SDS011;43484;43.608;1.458;2023-07-22T13:30:17;5.68;;;1.70;;
49722;SDS011;43484;43.608;1.458;2023-07-22T13:32:44;4.38;;;1.75;;
49722;SDS011;43484;43.608;1.458;2023-07-22T13:35:11;2.38;;;1.73;;
49722;SDS011;43484;43.608;1.458;2023-07-22T13:37:37;6.82;;;2.05;;
49722;SDS011;43484;43.608;1.458;2023-07-22T13:40:04;9.60;;;1.70;;
49722;SDS011;43484;43.608;1.458;2023-07-22T13:42:36;2.22;;;1.48;;
49722;SDS011;43484;43.608;1.458;2023-07-22T13:45:03;6.32;;;2.00;;
49722;SDS011;43484;43.608;1.458;2023-07-22T13:47:31;6.32;;;1.98;;
49722;SDS011;43484;43.608;1.458;2023-07-22T13:49:58;3.10;;;2.28;;
49722;SDS011;43484;43.608;1.458;2023-07-22T13:52:24;8.52;;;1.92;;
49722;SDS011;43484;43.608;1.458;2023-07-22T13:54:51;2.17;;;1.80;;
49722;SDS011;43484;43.608;1.458;2023-07-22T13:57:18;2.85;;;1.73;;
49722;SDS011;43484;43.608;1.458;2023-07-22T13:59:44;2.10;;;1.63;;
49722;SDS011;43484;43.608;1.458;2023-07-22T14:02:11;5.40;;;2.55;;
49722;SDS011;43484;43.608;1.458;2023-07-22T14:04:37;2.92;;;1.70;;
49722;SDS011;43484;43.608;1.458;2023-07-22T14:07:04;3.15;;;1.85;;
49722;SDS011;43484;43.608;1.458;2023-07-22T14:09:31;2.42;;;2.00;;
49722;SDS011;43484;43.608;1.458;2023-07-22T14:11:58;4.82;;;1.70;;
49722;SDS011;43484;43.608;1.458;2023-07-22T14:14:24;4.97;;;1.92;;
49722;SDS011;43484;43.608;1.458;2023-07-22T14:16:55;2.78;;;1.75;;
49722;SDS011;43484;43.608;1.458;2023-07-22T14:19:23;3.13;;;1.80;;
49722;SDS011;43484;43.608;1.458;2023-07-22T14:21:50;3.05;;;1.80;;
49722;SDS011;43484;43.608;1.458;2023-07-22T14:24:17;1.85;;;1.23;;
49722;SDS011;43484;43.608;1.458;2023-07-22T14:26:44;2.30;;;1.83;;
49722;SDS011;43484;43.608;1.458;2023-07-22T14:29:10;2.92;;;1.60;;
49722;SDS011;43484;43.608;1.458;2023-07-22T14:31:37;1.67;;;1.58;;
49722;SDS011;43484;43.608;1.458;2023-07-22T14:34:03;4.68;;;1.80;;
49722;SDS011;43484;43.608;1.458;2023-07-22T14:36:30;2.75;;;1.73;;
49722;SDS011;43484;43.608;1.458;2023-07-22T14:38:57;2.75;;;1.60;;
49722;SDS011;43484;43.608;1.458;2023-07-22T14:41:24;3.35;;;1.90;;
49722;SDS011;43484;43.608;1.458;2023-07-22T14:43:51;3.15;;;1.90;;
49722;SDS011;43484;43.608;1.458;2023-07-22T14:46:18;4.20;;;1.85;;
49722;SDS011;43484;43.608;1.458;2023-07-22T14:48:45;4.72;;;1.63;;
49722;SDS011;43484;43.608;1.458;2023-07-22T14:51:11;2.83;;;1.85;;
49722;SDS011;43484;43.608;1.458;2023-07-22T14:53:39;3.42;;;1.70;;
49722;SDS011;43484;43.608;1.458;2023-07-22T14:56:05;2.05;;;1.63;;
49722;SDS011;43484;43.608;1.458;2023-07-22T14:58:33;4.13;;;1.63;;
49722;SDS011;43484;43.608;1.458;2023-07-22T15:01:00;2.05;;;1.70;;
49722;SDS011;43484;43.608;1.458;2023-07-22T15:03:29;4.65;;;1.70;;
49722;SDS011;43484;43.608;1.458;2023-07-22T15:05:56;2.38;;;1.60;;
49722;SDS011;43484;43.608;1.458;2023-07-22T15:08:22;3.65;;;1.70;;
49722;SDS011;43484;43.608;1.458;2023-07-22T15:10:49;3.90;;;1.50;;
49722;SDS011;43484;43.608;1.458;2023-07-22T15:13:16;3.55;;;1.98;;
49722;SDS011;43484;43.608;1.458;2023-07-22T15:15:42;4.68;;;1.90;;
49722;SDS011;43484;43.608;1.458;2023-07-22T15:18:09;2.30;;;1.92;;